Time;durP1;ratioP1;P1;durP2;ratioP2;P2;SDS_P1;SDS_P2;PMS_P1;PMS_P2;Temp;Humidity;BMP_temperature;BMP_pressure;BME280_temperature;BME280_humidity;BME280_pressure;Samples;Min_cycle;Max_cycle;Signal;HPM_P1;HPM_P2
2022/11/15 00:01:14;;;;;;;;;;;;;;;13.78;79.25;100046.50;7384665;19;19922;-88
2022/11/15 00:03:41;;;;;;;;;;;;;;;13.76;78.76;100046.72;7385186;19;19915;-86
2022/11/15 00:06:08;;;;;;;;;;;;;;;13.75;78.85;100041.59;7391163;19;19922;-84
2022/11/15 00:08:35;;;;;;;;;;;;;;;13.72;78.59;100037.50;7387067;19;20304;-86
2022/11/15 00:11:02;;;;;;;;;;;;;;;13.68;78.74;100031.78;7385675;19;19918;-86
2022/11/15 00:13:30;;;;;;;;;;;;;;;13.66;78.67;100025.06;7384817;19;20336;-84
2022/11/15 00:15:58;;;;;;;;;;;;;;;13.65;79.23;100028.72;7387664;19;19934;-85
2022/11/15 00:18:25;;;;;;;;;;;;;;;13.62;78.76;100023.81;7391749;19;20183;-86
2022/11/15 00:20:52;;;;;;;;;;;;;;;13.58;78.69;100026.03;7390094;19;20428;-86
2022/11/15 00:23:19;;;;;;;;;;;;;;;13.53;78.48;100017.03;7388548;19;19923;-86
2022/11/15 00:25:46;;;;;;;;;;;;;;;13.51;79.06;100019.84;7388604;19;19931;-87
2022/11/15 00:28:13;;;;;;;;;;;;;;;13.51;79.48;100019.84;7389917;19;19919;-86
2022/11/15 00:30:40;;;;;;;;;;;;;;;13.52;80.18;100015.38;7389559;19;20845;-86
2022/11/15 00:33:08;;;;;;;;;;;;;;;13.51;79.36;100011.13;7386293;19;20175;-86
2022/11/15 00:35:36;;;;;;;;;;;;;;;13.49;79.20;100006.03;7387422;19;20348;-86
2022/11/15 00:38:03;;;;;;;;;;;;;;;13.49;79.76;99999.94;7386070;19;19933;-86
2022/11/15 00:40:30;;;;;;;;;;;;;;;13.46;80.06;99995.03;7388355;19;19931;-85
2022/11/15 00:42:57;;;;;;;;;;;;;;;13.45;80.00;99988.13;7390157;19;19947;-87
2022/11/15 00:45:24;;;;;;;;;;;;;;;13.45;79.78;99988.13;7394416;19;19927;-86
2022/11/15 00:48:29;;;;;;;;;;;;;;;13.41;80.13;99986.88;7389600;19;19922;-84
2022/11/15 00:50:56;;;;;;;;;;;;;;;13.39;79.82;99973.03;7387544;19;19926;-85
2022/11/15 00:53:26;;;;;;;;;;;;;;;13.39;79.84;99973.03;7384568;19;19970;-85
2022/11/15 00:55:56;;;;;;;;;;;;;;;13.37;79.58;99967.09;7385704;19;19926;-87
2022/11/15 00:58:24;;;;;;;;;;;;;;;13.36;79.53;99958.34;7385713;19;19936;-85
2022/11/15 01:00:51;;;;;;;;;;;;;;;13.35;79.69;99954.09;7387001;19;19919;-85
2022/11/15 01:03:18;;;;;;;;;;;;;;;13.32;80.09;99945.72;7386535;19;19933;-87
2022/11/15 01:05:45;;;;;;;;;;;;;;;13.31;80.29;99939.63;7385285;19;19915;-85
2022/11/15 01:08:13;;;;;;;;;;;;;;;13.31;81.03;99929.06;7383535;19;20351;-85
2022/11/15 01:10:40;;;;;;;;;;;;;;;13.31;80.38;99930.91;7380793;19;19925;-86
2022/11/15 01:13:07;;;;;;;;;;;;;;;13.27;80.61;99930.44;7380993;19;20378;-86
2022/11/15 01:15:34;;;;;;;;;;;;;;;13.23;80.61;99924.75;7383279;19;20364;-86
2022/11/15 01:18:01;;;;;;;;;;;;;;;13.22;80.74;99923.09;7385602;19;19919;-86
2022/11/15 01:20:27;;;;;;;;;;;;;;;13.21;81.23;99918.00;7387121;19;19923;-85
2022/11/15 01:22:57;;;;;;;;;;;;;;;13.19;82.07;99925.31;7387526;19;19919;-86
2022/11/15 01:25:24;;;;;;;;;;;;;;;13.16;81.03;99910.66;7388660;19;20487;-87
2022/11/15 01:27:51;;;;;;;;;;;;;;;13.13;80.80;99905.78;7384522;19;19923;-86
2022/11/15 01:30:18;;;;;;;;;;;;;;;13.11;81.34;99899.00;7384007;19;19927;-87
2022/11/15 01:32:45;;;;;;;;;;;;;;;13.10;81.27;99898.22;7384871;19;19919;-84
2022/11/15 01:35:12;;;;;;;;;;;;;;;13.11;81.33;99893.72;7382862;19;19918;-87
2022/11/15 01:37:38;;;;;;;;;;;;;;;13.11;81.58;99885.78;7383537;19;19923;-86
2022/11/15 01:40:05;;;;;;;;;;;;;;;13.11;81.24;99884.00;7382712;19;20337;-87
2022/11/15 01:42:32;;;;;;;;;;;;;;;13.11;80.94;99885.78;7384119;19;19919;-86
2022/11/15 01:44:59;;;;;;;;;;;;;;;13.09;81.04;99878.09;7382515;19;19922;-86
2022/11/15 01:47:30;;;;;;;;;;;;;;;13.08;81.21;99870.34;7384864;19;19926;-85
2022/11/15 01:50:00;;;;;;;;;;;;;;;13.06;80.97;99867.88;7383242;19;19924;-86
2022/11/15 01:52:29;;;;;;;;;;;;;;;13.08;81.20;99863.25;7383051;19;20344;-86
2022/11/15 01:55:08;;;;;;;;;;;;;;;13.10;81.07;99869.16;7383782;19;19911;-86
2022/11/15 01:57:35;;;;;;;;;;;;;;;13.11;81.23;99854.09;7386036;19;19911;-85
2022/11/15 02:00:03;;;;;;;;;;;;;;;13.10;80.87;99855.97;7384902;19;19926;-86
2022/11/15 02:02:31;;;;;;;;;;;;;;;13.10;80.86;99844.56;7384315;19;19945;-86
2022/11/15 02:04:59;;;;;;;;;;;;;;;13.09;80.56;99830.56;7386471;19;19961;-85
2022/11/15 02:07:26;;;;;;;;;;;;;;;13.11;81.25;99838.25;7386828;19;19915;-87
2022/11/15 02:09:53;;;;;;;;;;;;;;;13.11;80.67;99835.63;7390512;19;19926;-86
2022/11/15 02:12:21;;;;;;;;;;;;;;;13.11;80.78;99827.69;7383180;19;19951;-86
2022/11/15 02:14:51;;;;;;;;;;;;;;;13.11;80.37;99827.69;7381673;19;19915;-86
2022/11/15 02:17:17;;;;;;;;;;;;;;;13.10;80.59;99818.97;7384315;19;19929;-86
2022/11/15 02:19:44;;;;;;;;;;;;;;;13.11;80.38;99819.78;7385376;19;20266;-86
2022/11/15 02:22:30;;;;;;;;;;;;;;;13.12;81.22;99805.59;7386761;19;19926;-87
2022/11/15 02:25:24;;;;;;;;;;;;;;;13.13;81.17;99796.66;7381255;19;19923;-86
2022/11/15 02:28:03;;;;;;;;;;;;;;;13.13;80.79;99792.19;7382636;19;20272;-86
2022/11/15 02:30:33;;;;;;;;;;;;;;;13.15;80.64;99792.00;7381896;19;19919;-86
2022/11/15 02:33:09;;;;;;;;;;;;;;;13.14;80.50;99785.91;7386723;19;19941;-85
2022/11/15 02:39:13;;;;;;;;;;;;;;;13.18;80.98;99778.41;7386453;19;19955;-86
2022/11/15 02:42:00;;;;;;;;;;;;;;;13.18;80.73;99773.94;7386423;19;19914;-86
2022/11/15 02:44:32;;;;;;;;;;;;;;;13.17;80.66;99767.03;7384680;19;20348;-86
2022/11/15 02:47:13;;;;;;;;;;;;;;;13.17;80.81;99756.44;7384423;19;19933;-86
2022/11/15 02:49:46;;;;;;;;;;;;;;;13.17;80.84;99755.63;7389115;19;21605;-86
2022/11/15 02:52:17;;;;;;;;;;;;;;;13.18;81.34;99765.19;7386434;19;19925;-86
2022/11/15 02:54:52;;;;;;;;;;;;;;;13.20;81.28;99756.09;7381244;19;19919;-85
2022/11/15 02:57:24;;;;;;;;;;;;;;;13.20;81.23;99745.50;7381063;19;19915;-86
2022/11/15 02:59:50;;;;;;;;;;;;;;;13.21;81.16;99741.00;7384217;19;19986;-86
2022/11/15 03:02:36;;;;;;;;;;;;;;;13.22;81.41;99742.66;7389566;19;19915;-86
2022/11/15 03:05:20;;;;;;;;;;;;;;;13.22;81.70;99732.09;7383702;19;19919;-85
2022/11/15 03:07:47;;;;;;;;;;;;;;;13.23;82.24;99731.09;7387715;19;20015;-87
2022/11/15 03:10:32;;;;;;;;;;;;;;;13.23;82.58;99723.97;7385764;19;20019;-85
2022/11/15 03:13:17;;;;;;;;;;;;;;;13.25;82.23;99716.69;7382914;19;19952;-86
2022/11/15 03:15:49;;;;;;;;;;;;;;;13.28;82.29;99711.00;7385709;19;19931;-85
2022/11/15 03:18:20;;;;;;;;;;;;;;;13.29;82.36;99698.59;7387077;19;19923;-86
2022/11/15 03:20:48;;;;;;;;;;;;;;;13.32;82.50;99697.38;7386946;19;20134;-83
2022/11/15 03:23:15;;;;;;;;;;;;;;;13.37;82.97;99708.16;7381819;19;19947;-85
2022/11/15 03:25:43;;;;;;;;;;;;;;;13.41;83.15;99698.84;7385050;19;19923;-88
2022/11/15 03:31:47;;;;;;;;;;;;;;;13.43;82.90;99700.25;7385062;19;19925;-87
2022/11/15 03:34:28;;;;;;;;;;;;;;;13.44;82.90;99691.31;7384513;19;19915;-85
2022/11/15 03:36:55;;;;;;;;;;;;;;;13.47;83.00;99685.63;7391454;19;20132;-87
2022/11/15 03:39:23;;;;;;;;;;;;;;;13.51;83.70;99680.78;7396076;19;19922;-85
2022/11/15 03:42:07;;;;;;;;;;;;;;;13.50;83.34;99672.03;7391255;19;19919;-85
2022/11/15 03:44:58;;;;;;;;;;;;;;;13.52;83.05;99671.81;7391135;19;20343;-86
2022/11/15 03:47:34;;;;;;;;;;;;;;;13.54;83.17;99669.78;7393690;19;19929;-84
2022/11/15 03:50:04;;;;;;;;;;;;;;;13.55;83.08;99671.44;7390968;19;19922;-86
2022/11/15 03:52:34;;;;;;;;;;;;;;;13.53;83.00;99662.88;7392704;19;19923;-86
2022/11/15 03:55:01;;;;;;;;;;;;;;;13.56;83.68;99662.50;7390299;19;19918;-85
2022/11/15 03:57:29;;;;;;;;;;;;;;;13.54;83.43;99662.69;7392830;19;19925;-86
2022/11/15 03:59:55;;;;;;;;;;;;;;;13.55;83.34;99652.94;7392252;19;19925;-86
2022/11/15 04:02:23;;;;;;;;;;;;;;;13.57;83.28;99645.59;7394294;19;20537;-86
2022/11/15 04:07:55;;;;;;;;;;;;;;;13.56;83.40;99642.13;7392908;19;20177;-88
2022/11/15 04:10:22;;;;;;;;;;;;;;;13.58;83.91;99629.53;7393071;19;19915;-86
2022/11/15 04:12:52;;;;;;;;;;;;;;;13.58;83.83;99640.13;7388931;19;20455;-85
2022/11/15 04:15:26;;;;;;;;;;;;;;;13.60;83.58;99627.53;7389513;19;19933;-86
2022/11/15 04:17:54;;;;;;;;;;;;;;;13.59;83.55;99620.59;7389513;19;19963;-86
2022/11/15 04:26:08;;;;;;;;;;;;;;;13.57;84.21;99612.06;7392757;19;19929;-86
2022/11/15 04:31:53;;;;;;;;;;;;;;;13.59;84.26;99599.47;7392351;19;20386;-85
2022/11/15 04:34:20;;;;;;;;;;;;;;;13.61;84.37;99599.25;7390418;19;20194;-86
2022/11/15 04:39:32;;;;;;;;;;;;;;;13.62;85.22;99585.00;7389619;19;19911;-86
2022/11/15 04:42:01;;;;;;;;;;;;;;;13.64;85.79;99578.53;7386817;19;19959;-86
2022/11/15 04:44:28;;;;;;;;;;;;;;;13.67;85.67;99564.88;7387078;19;19927;-86
2022/11/15 04:46:54;;;;;;;;;;;;;;;13.68;85.60;99566.50;7387113;19;20290;-87
2022/11/15 04:49:21;;;;;;;;;;;;;;;13.71;85.60;99557.38;7383635;19;19929;-85
2022/11/15 04:51:48;;;;;;;;;;;;;;;13.73;85.65;99544.75;7389402;19;19950;-86
2022/11/15 04:54:15;;;;;;;;;;;;;;;13.76;85.46;99554.94;7387622;19;20604;-86
2022/11/15 04:56:43;;;;;;;;;;;;;;;13.78;85.74;99554.72;7390201;19;20367;-86
2022/11/15 04:59:09;;;;;;;;;;;;;;;13.80;85.64;99548.22;7391855;19;20248;-86
2022/11/15 05:01:36;;;;;;;;;;;;;;;13.82;85.62;99543.50;7393869;19;19918;-85
2022/11/15 05:04:18;;;;;;;;;;;;;;;13.83;85.39;99536.41;7392737;19;19998;-87
2022/11/15 05:06:49;;;;;;;;;;;;;;;13.83;85.54;99531.94;7389879;19;19955;-87
2022/11/15 05:09:20;;;;;;;;;;;;;;;13.83;85.84;99524.00;7390953;19;19985;-86
2022/11/15 05:11:47;;;;;;;;;;;;;;;13.86;86.20;99522.78;7388361;19;19919;-84
2022/11/15 05:14:14;;;;;;;;;;;;;;;13.90;86.40;99513.41;7385493;19;19927;-86
2022/11/15 05:16:41;;;;;;;;;;;;;;;13.92;86.05;99514.00;7386575;19;19949;-85
2022/11/15 05:19:08;;;;;;;;;;;;;;;13.94;86.21;99504.84;7387132;19;19910;-85
2022/11/15 05:21:35;;;;;;;;;;;;;;;13.95;86.06;99508.31;7389075;19;20384;-86
2022/11/15 05:24:02;;;;;;;;;;;;;;;13.94;86.17;99496.91;7388333;19;20365;-85
2022/11/15 05:26:29;;;;;;;;;;;;;;;13.97;86.40;99491.19;7389691;19;19923;-85
2022/11/15 05:28:57;;;;;;;;;;;;;;;14.01;86.52;99476.56;7385469;19;19927;-85
2022/11/15 05:31:25;;;;;;;;;;;;;;;14.05;86.14;99476.97;7387069;19;20245;-86
2022/11/15 05:33:53;;;;;;;;;;;;;;;14.07;85.89;99486.28;7388313;19;19917;-84
2022/11/15 05:36:23;;;;;;;;;;;;;;;14.08;85.88;99473.88;7389484;19;19958;-86
2022/11/15 05:38:50;;;;;;;;;;;;;;;14.12;85.51;99477.72;7388894;19;20043;-85
2022/11/15 05:41:19;;;;;;;;;;;;;;;14.13;85.41;99463.47;7391225;19;19935;-85
2022/11/15 05:43:48;;;;;;;;;;;;;;;14.17;85.87;99455.97;7386194;19;20317;-85
2022/11/15 05:46:15;;;;;;;;;;;;;;;14.21;85.91;99465.09;7389176;19;19937;-85
2022/11/15 05:48:45;;;;;;;;;;;;;;;14.23;85.28;99458.56;7386907;19;19923;-84
2022/11/15 05:51:13;;;;;;;;;;;;;;;14.25;84.99;99450.41;7386774;19;20332;-85
2022/11/15 05:53:39;;;;;;;;;;;;;;;14.27;84.87;99443.09;7388147;19;19923;-87
2022/11/15 05:56:08;;;;;;;;;;;;;;;14.27;84.76;99437.81;7385890;19;19925;-85
2022/11/15 05:58:36;;;;;;;;;;;;;;;14.28;85.10;99442.88;7386255;19;19986;-84
2022/11/15 06:01:04;;;;;;;;;;;;;;;14.27;85.46;99428.03;7386674;19;19994;-85
2022/11/15 06:03:31;;;;;;;;;;;;;;;14.28;85.37;99429.63;7385206;19;19922;-86
2022/11/15 06:05:58;;;;;;;;;;;;;;;14.28;85.64;99421.69;7384589;19;19919;-85
2022/11/15 06:08:26;;;;;;;;;;;;;;;14.29;85.55;99433.09;7383547;19;19923;-86
2022/11/15 06:10:53;;;;;;;;;;;;;;;14.30;85.52;99430.25;7385405;19;19922;-86
2022/11/15 06:13:20;;;;;;;;;;;;;;;14.30;85.91;99424.94;7383812;19;19929;-86
2022/11/15 06:15:47;;;;;;;;;;;;;;;14.29;85.95;99418.03;7385756;19;20655;-87
2022/11/15 06:18:14;;;;;;;;;;;;;;;14.30;85.93;99417.00;7386178;19;19960;-86
2022/11/15 06:23:59;;;;;;;;;;;;;;;14.31;85.71;99417.81;7388836;19;19974;-87
2022/11/15 06:26:26;;;;;;;;;;;;;;;14.34;85.11;99412.09;7387091;19;19978;-86
2022/11/15 06:28:53;;;;;;;;;;;;;;;14.33;84.74;99408.63;7384982;19;19919;-84
2022/11/15 06:31:20;;;;;;;;;;;;;;;14.34;85.03;99412.09;7384408;19;19923;-86
2022/11/15 06:36:58;;;;;;;;;;;;;;;14.40;84.55;99400.69;7388003;19;20310;-85
2022/11/15 06:39:24;;;;;;;;;;;;;;;14.41;84.49;99394.41;7386156;19;19931;-87
2022/11/15 06:41:51;;;;;;;;;;;;;;;14.42;84.51;99399.47;7384729;19;19914;-86
2022/11/15 06:44:18;;;;;;;;;;;;;;;14.43;84.75;99387.03;7389550;19;19933;-86
2022/11/15 06:49:57;;;;;;;;;;;;;;;14.46;84.71;99389.28;7387947;19;19926;-85
2022/11/15 06:52:23;;;;;;;;;;;;;;;14.47;85.08;99377.66;7386817;19;19992;-87
2022/11/15 06:54:51;;;;;;;;;;;;;;;14.47;85.23;99383.78;7385341;19;19919;-86
2022/11/15 06:57:17;;;;;;;;;;;;;;;14.47;85.51;99372.38;7388214;19;20466;-86
2022/11/15 06:59:45;;;;;;;;;;;;;;;14.47;85.81;99375.84;7380569;19;19919;-86
2022/11/15 07:02:15;;;;;;;;;;;;;;;14.47;86.64;99367.91;7386778;19;20546;-87
2022/11/15 07:04:42;;;;;;;;;;;;;;;14.48;86.66;99366.03;7386203;19;20293;-86
2022/11/15 07:07:09;;;;;;;;;;;;;;;14.48;86.67;99355.44;7387658;19;19998;-87
2022/11/15 07:09:36;;;;;;;;;;;;;;;14.47;86.98;99353.84;7386919;19;19923;-86
2022/11/15 07:12:03;;;;;;;;;;;;;;;14.46;87.37;99354.88;7384105;19;19963;-85
2022/11/15 07:14:33;;;;;;;;;;;;;;;14.44;87.56;99346.31;7381322;19;19927;-85
2022/11/15 07:17:02;;;;;;;;;;;;;;;14.45;88.10;99342.66;7386071;19;19919;-85
2022/11/15 07:19:29;;;;;;;;;;;;;;;14.43;88.46;99344.69;7386834;19;20348;-85
2022/11/15 07:21:56;;;;;;;;;;;;;;;14.39;88.88;99346.97;7381490;19;19918;-87
2022/11/15 07:24:23;;;;;;;;;;;;;;;14.40;89.33;99339.84;7383730;19;19923;-86
2022/11/15 07:26:50;;;;;;;;;;;;;;;14.38;89.94;99347.16;7382670;19;19926;-86
2022/11/15 07:29:17;;;;;;;;;;;;;;;14.35;90.27;99337.00;7383561;19;20030;-84
2022/11/15 07:31:43;;;;;;;;;;;;;;;14.32;91.25;99327.66;7382780;19;19923;-86
2022/11/15 07:34:10;;;;;;;;;;;;;;;14.31;92.18;99327.88;7383957;19;19947;-86
2022/11/15 07:36:37;;;;;;;;;;;;;;;14.29;92.47;99336.00;7383287;19;19921;-86
2022/11/15 07:39:04;;;;;;;;;;;;;;;14.29;92.54;99337.84;7384004;19;19954;-85
2022/11/15 07:41:31;;;;;;;;;;;;;;;14.25;93.18;99337.47;7384959;19;19988;-87
2022/11/15 07:43:58;;;;;;;;;;;;;;;14.19;93.60;99319.78;7385495;19;19962;-87
2022/11/15 07:46:25;;;;;;;;;;;;;;;14.18;94.01;99317.34;7387514;19;19927;-88
2022/11/15 07:48:51;;;;;;;;;;;;;;;14.17;94.76;99321.03;7390147;19;19951;-87
2022/11/15 07:51:18;;;;;;;;;;;;;;;14.14;95.26;99320.44;7390042;19;20011;-87
2022/11/15 07:53:45;;;;;;;;;;;;;;;14.12;95.39;99322.47;7393379;19;19918;-86
2022/11/15 07:56:12;;;;;;;;;;;;;;;14.12;95.60;99317.19;7403560;19;19922;-88
2022/11/15 07:58:55;;;;;;;;;;;;;;;14.07;95.87;99309.06;7387448;19;19919;-88
2022/11/15 08:01:23;;;;;;;;;;;;;;;14.04;96.11;99300.75;7385776;19;20292;-88
2022/11/15 08:03:50;;;;;;;;;;;;;;;14.04;96.80;99295.47;7388033;19;19938;-87
2022/11/15 08:06:17;;;;;;;;;;;;;;;14.04;96.89;99291.00;7387345;19;20420;-85
2022/11/15 08:08:47;;;;;;;;;;;;;;;14.03;96.79;99289.38;7390997;19;19955;-87
2022/11/15 08:11:14;;;;;;;;;;;;;;;14.01;96.92;99287.97;7390157;19;20271;-87
2022/11/15 08:13:41;;;;;;;;;;;;;;;14.00;97.14;99289.81;7387749;19;20309;-87
2022/11/15 08:16:08;;;;;;;;;;;;;;;13.99;97.21;99274.97;7392081;19;19910;-90
2022/11/15 08:18:35;;;;;;;;;;;;;;;14.00;97.56;99284.53;7390524;19;19934;-87
2022/11/15 08:21:02;;;;;;;;;;;;;;;14.01;97.93;99267.63;7386813;19;19925;-87
2022/11/15 08:23:29;;;;;;;;;;;;;;;14.00;97.86;99273.94;7395959;19;20991;-87
2022/11/15 08:26:02;;;;;;;;;;;;;;;14.00;97.76;99263.38;7398306;19;19935;-88
2022/11/15 08:28:31;;;;;;;;;;;;;;;14.00;97.77;99270.47;7391434;19;19990;-87
2022/11/15 08:30:58;;;;;;;;;;;;;;;14.00;97.47;99271.28;7393255;19;19911;-88
2022/11/15 08:33:25;;;;;;;;;;;;;;;13.99;97.70;99263.56;7397468;19;19926;-88
2022/11/15 08:35:59;;;;;;;;;;;;;;;13.99;97.86;99258.28;7389579;19;19922;-87
2022/11/15 08:38:28;;;;;;;;;;;;;;;14.01;97.95;99265.00;7395385;19;20006;-89
2022/11/15 08:41:01;;;;;;;;;;;;;;;14.03;97.76;99256.81;7391589;19;19967;-87
2022/11/15 08:43:28;;;;;;;;;;;;;;;14.01;97.78;99254.41;7395134;19;19919;-88
2022/11/15 08:45:56;;;;;;;;;;;;;;;14.01;97.61;99249.13;7395401;19;19919;-87
2022/11/15 08:48:23;;;;;;;;;;;;;;;14.02;97.98;99241.97;7396241;19;19937;-88
2022/11/15 08:50:55;;;;;;;;;;;;;;;14.09;98.33;99232.16;7397603;19;19915;-87
2022/11/15 08:53:22;;;;;;;;;;;;;;;14.11;98.28;99232.78;7399505;19;20226;-87
2022/11/15 08:55:48;;;;;;;;;;;;;;;14.12;98.40;99231.72;7395915;19;19921;-88
2022/11/15 08:58:15;;;;;;;;;;;;;;;14.14;97.89;99235.78;7400308;19;20218;-88
2022/11/15 09:00:43;;;;;;;;;;;;;;;14.17;98.06;99233.75;7391771;19;19994;-89
2022/11/15 09:03:29;;;;;;;;;;;;;;;14.17;98.33;99223.16;7393763;19;19923;-89
2022/11/15 09:05:57;;;;;;;;;;;;;;;14.14;98.65;99232.31;7389965;19;19923;-87
2022/11/15 09:08:25;;;;;;;;;;;;;;;14.14;98.58;99217.28;7394093;19;19959;-88
2022/11/15 09:11:12;;;;;;;;;;;;;;;14.18;98.84;99216.81;7400949;19;19922;-89
2022/11/15 09:13:39;;;;;;;;;;;;;;;14.18;98.86;99200.97;7396363;19;19978;-87
2022/11/15 09:19:25;;;;;;;;;;;;;;;14.16;99.19;99195.91;7393736;19;19915;-87
2022/11/15 09:21:52;;;;;;;;;;;;;;;14.17;99.42;99205.44;7391003;19;19926;-88
2022/11/15 09:24:19;;;;;;;;;;;;;;;14.18;99.36;99193.84;7393873;19;19926;-87
2022/11/15 09:26:46;;;;;;;;;;;;;;;14.19;99.27;99187.53;7394924;19;19919;-87
2022/11/15 09:29:15;;;;;;;;;;;;;;;14.19;99.29;99187.53;7394162;19;19931;-88
2022/11/15 09:31:42;;;;;;;;;;;;;;;14.20;99.64;99193.63;7390968;19;19958;-87
2022/11/15 09:34:09;;;;;;;;;;;;;;;14.19;99.71;99184.88;7393872;19;20006;-86
2022/11/15 09:36:36;;;;;;;;;;;;;;;14.21;99.75;99174.09;7389051;19;20253;-87
2022/11/15 09:39:03;;;;;;;;;;;;;;;14.22;100.00;99175.72;7392465;19;19926;-87
2022/11/15 09:41:42;;;;;;;;;;;;;;;14.23;100.00;99175.47;7391115;19;19915;-87
2022/11/15 09:44:25;;;;;;;;;;;;;;;14.25;100.00;99162.03;7390868;19;19919;-88
2022/11/15 09:46:52;;;;;;;;;;;;;;;14.24;100.00;99152.47;7390991;19;20660;-88
2022/11/15 09:49:19;;;;;;;;;;;;;;;14.23;100.00;99142.91;7392437;19;20249;-87
2022/11/15 09:51:49;;;;;;;;;;;;;;;14.27;100.00;99149.41;7386728;19;19923;-87
2022/11/15 09:54:28;;;;;;;;;;;;;;;14.25;100.00;99141.69;7390128;19;20460;-86
2022/11/15 09:57:18;;;;;;;;;;;;;;;14.28;100.00;99143.06;7390092;19;19955;-87
2022/11/15 10:00:04;;;;;;;;;;;;;;;14.27;100.00;99134.34;7386415;19;19926;-86
2022/11/15 10:02:51;;;;;;;;;;;;;;;14.29;100.00;99136.75;7386059;19;19919;-87
2022/11/15 10:05:20;;;;;;;;;;;;;;;14.29;100.00;99121.69;7384560;19;19943;-87
2022/11/15 10:11:02;;;;;;;;;;;;;;;14.30;100.00;99118.03;7391787;19;19922;-88
2022/11/15 10:13:51;;;;;;;;;;;;;;;14.32;100.00;99109.88;7389088;19;20319;-86
2022/11/15 10:16:36;;;;;;;;;;;;;;;14.34;100.00;99105.16;7391477;19;20337;-85
2022/11/15 10:19:06;;;;;;;;;;;;;;;14.33;100.00;99095.59;7390212;19;19922;-87
2022/11/15 10:21:52;;;;;;;;;;;;;;;14.35;100.00;99096.19;7391147;19;20300;-88
2022/11/15 10:24:23;;;;;;;;;;;;;;;14.37;100.00;99089.69;7392585;19;19919;-86
2022/11/15 10:26:50;;;;;;;;;;;;;;;14.39;100.00;99090.28;7393326;19;20005;-87
2022/11/15 10:29:21;;;;;;;;;;;;;;;14.40;100.00;99083.97;7391638;19;19986;-88
2022/11/15 10:31:52;;;;;;;;;;;;;;;14.40;100.00;99067.28;7392106;19;19943;-88
2022/11/15 10:34:21;;;;;;;;;;;;;;;14.39;100.00;99068.28;7388967;19;19919;-88
2022/11/15 10:36:55;;;;;;;;;;;;;;;14.38;100.00;99059.53;7387482;19;19927;-88
2022/11/15 10:39:22;;;;;;;;;;;;;;;14.39;100.00;99047.94;7390084;19;19929;-87
2022/11/15 10:41:49;;;;;;;;;;;;;;;14.39;100.00;99049.78;7387838;19;19944;-86
2022/11/15 10:44:45;;;;;;;;;;;;;;;14.42;100.00;99036.13;7389887;19;19929;-87
2022/11/15 10:47:26;;;;;;;;;;;;;;;14.44;100.00;99042.78;7383149;19;20244;-86
2022/11/15 10:49:56;;;;;;;;;;;;;;;14.46;100.00;99035.44;7391868;19;20319;-87
2022/11/15 10:52:24;;;;;;;;;;;;;;;14.45;100.00;99028.53;7401543;19;19991;-88
2022/11/15 10:55:02;;;;;;;;;;;;;;;14.47;100.00;99021.19;7392076;19;19919;-88
2022/11/15 10:57:36;;;;;;;;;;;;;;;14.49;100.00;99023.59;7393224;19;19923;-87
2022/11/15 11:00:26;;;;;;;;;;;;;;;14.47;100.00;99017.72;7395287;19;19922;-87
2022/11/15 11:02:56;;;;;;;;;;;;;;;14.47;100.00;98999.19;7393869;19;19922;-87
2022/11/15 11:05:40;;;;;;;;;;;;;;;14.45;100.00;99006.53;7393927;19;19926;-87
2022/11/15 11:08:33;;;;;;;;;;;;;;;14.47;100.00;99007.16;7390183;19;21986;-87
2022/11/15 11:11:01;;;;;;;;;;;;;;;14.48;100.00;99001.59;7390569;19;21604;-87
2022/11/15 11:13:30;;;;;;;;;;;;;;;14.49;100.00;98989.19;7391307;19;19930;-86
2022/11/15 11:16:16;;;;;;;;;;;;;;;14.48;100.00;98988.38;7391363;19;19986;-88
2022/11/15 11:18:46;;;;;;;;;;;;;;;14.49;100.00;98989.19;7390263;19;19994;-88
2022/11/15 11:25:06;;;;;;;;;;;;;;;14.51;100.00;98963.31;7388600;19;19918;-86
2022/11/15 11:27:33;;;;;;;;;;;;;;;14.51;100.00;98958.03;7386802;19;19943;-88
2022/11/15 11:30:00;;;;;;;;;;;;;;;14.50;100.00;98967.00;7386263;19;20362;-87
2022/11/15 11:32:27;;;;;;;;;;;;;;;14.50;100.00;98951.91;7389647;19;20350;-87
2022/11/15 11:35:00;;;;;;;;;;;;;;;14.49;100.00;98952.13;7387629;19;20264;-87
2022/11/15 11:37:36;;;;;;;;;;;;;;;14.48;100.00;98947.88;7388270;19;19939;-87
2022/11/15 11:40:06;;;;;;;;;;;;;;;14.49;100.00;98937.06;7391378;19;19951;-87
2022/11/15 11:42:41;;;;;;;;;;;;;;;14.51;100.00;98928.91;7388070;19;19922;-88
2022/11/15 11:45:11;;;;;;;;;;;;;;;14.53;100.00;98921.53;7390491;19;19948;-88
2022/11/15 11:47:51;;;;;;;;;;;;;;;14.52;100.00;98925.22;7390348;19;20322;-88
2022/11/15 11:50:19;;;;;;;;;;;;;;;14.52;100.00;98917.28;7390045;19;19918;-88
2022/11/15 11:52:48;;;;;;;;;;;;;;;14.51;100.00;98910.38;7389105;19;19918;-87
2022/11/15 11:58:34;;;;;;;;;;;;;;;14.49;100.00;98893.91;7398243;19;19919;-87
2022/11/15 12:01:20;;;;;;;;;;;;;;;14.51;100.00;98895.31;7396220;19;19958;-88
2022/11/15 12:04:01;;;;;;;;;;;;;;;14.49;100.00;98873.53;7397483;19;19926;-89
2022/11/15 12:06:31;;;;;;;;;;;;;;;14.50;100.00;98871.72;7395626;19;20233;-89
2022/11/15 12:09:13;;;;;;;;;;;;;;;14.49;100.00;98876.19;7397108;19;20084;-88
2022/11/15 12:12:01;;;;;;;;;;;;;;;14.49;100.00;98855.03;7395756;19;19922;-89
2022/11/15 12:14:40;;;;;;;;;;;;;;;14.53;100.00;98860.66;7395321;19;19923;-87
2022/11/15 12:17:09;;;;;;;;;;;;;;;14.52;100.00;98849.28;7392405;19;19943;-87
2022/11/15 12:19:37;;;;;;;;;;;;;;;14.53;100.00;98839.47;7395309;19;19918;-88
2022/11/15 12:22:16;;;;;;;;;;;;;;;14.53;100.00;98836.84;7396064;19;20495;-87
2022/11/15 12:28:21;;;;;;;;;;;;;;;14.50;100.00;98826.72;7398430;19;19926;-88
2022/11/15 12:30:54;;;;;;;;;;;;;;;14.51;100.00;98828.34;7395256;19;19918;-86
2022/11/15 12:33:34;;;;;;;;;;;;;;;14.51;100.00;98826.50;7397581;19;19925;-87
2022/11/15 12:36:03;;;;;;;;;;;;;;;14.53;100.00;98826.25;7395122;19;19923;-86
2022/11/15 12:38:49;;;;;;;;;;;;;;;14.57;100.00;98823.97;7395963;19;19933;-87
2022/11/15 12:41:17;;;;;;;;;;;;;;;14.57;100.00;98816.84;7394529;19;19922;-87
2022/11/15 12:43:45;;;;;;;;;;;;;;;14.58;100.00;98809.72;7396056;19;19922;-88
2022/11/15 12:46:23;;;;;;;;;;;;;;;14.60;100.00;98815.56;7400728;19;20318;-87
2022/11/15 12:48:51;;;;;;;;;;;;;;;14.63;100.00;98801.91;7400545;19;20085;-88
2022/11/15 12:51:37;;;;;;;;;;;;;;;14.69;100.00;98785.06;7394036;19;20229;-88
2022/11/15 12:54:29;;;;;;;;;;;;;;;14.73;100.00;98787.03;7394880;19;19922;-87
2022/11/15 12:57:19;;;;;;;;;;;;;;;14.72;100.00;98777.50;7395291;19;19919;-86
2022/11/15 12:59:55;;;;;;;;;;;;;;;14.74;100.00;98774.59;7395665;19;19943;-87
2022/11/15 13:02:29;;;;;;;;;;;;;;;14.74;100.00;98785.19;7391850;19;20015;-86
2022/11/15 13:05:17;;;;;;;;;;;;;;;14.73;100.00;98771.13;7393819;19;19927;-88
2022/11/15 13:07:44;;;;;;;;;;;;;;;14.79;100.00;98785.31;7390757;19;19939;-87
2022/11/15 13:10:27;;;;;;;;;;;;;;;14.81;100.00;98780.59;7392147;19;19926;-86
2022/11/15 13:12:58;;;;;;;;;;;;;;;14.85;100.00;98779.09;7393961;19;20294;-87
2022/11/15 13:15:25;;;;;;;;;;;;;;;14.88;100.00;98774.13;7392561;19;19918;-86
2022/11/15 13:17:53;;;;;;;;;;;;;;;14.91;100.00;98772.88;7394535;19;19922;-87
2022/11/15 13:20:25;;;;;;;;;;;;;;;14.94;100.00;98783.81;7400625;19;19958;-87
2022/11/15 13:23:03;;;;;;;;;;;;;;;14.98;100.00;98766.41;7396895;19;19915;-88
2022/11/15 13:25:30;;;;;;;;;;;;;;;15.06;100.00;98770.56;7398149;19;20389;-85
2022/11/15 13:27:57;;;;;;;;;;;;;;;15.12;100.00;98782.06;7398390;19;20004;-87
2022/11/15 13:30:32;;;;;;;;;;;;;;;15.17;100.00;98772.38;7395772;19;20322;-87
2022/11/15 13:33:14;;;;;;;;;;;;;;;15.23;100.00;98786.53;7393897;19;19915;-86
2022/11/15 13:35:42;;;;;;;;;;;;;;;15.27;100.00;98787.69;7392183;19;19919;-86
2022/11/15 13:38:29;;;;;;;;;;;;;;;15.28;100.00;98786.66;7392542;19;19925;-87
2022/11/15 13:40:57;;;;;;;;;;;;;;;15.35;100.00;98780.16;7393510;19;19933;-86
2022/11/15 13:43:29;;;;;;;;;;;;;;;15.43;100.00;98789.59;7389206;19;19935;-87
2022/11/15 13:46:07;;;;;;;;;;;;;;;15.47;100.00;98785.44;7392740;19;19911;-87
2022/11/15 13:48:34;;;;;;;;;;;;;;;15.51;99.76;98789.25;7388700;19;19959;-86
2022/11/15 13:51:02;;;;;;;;;;;;;;;15.56;99.36;98786.72;7389773;19;19915;-86